createdAt,value
2023-03-22T00:00:27.004Z,30.75
2023-03-22T00:01:29.568Z,29.23
2023-03-22T00:02:32.179Z,29.14
2023-03-22T00:03:34.929Z,30.23
2023-03-22T00:04:37.549Z,31.81
2023-03-22T00:05:40.103Z,31.51
2023-03-22T00:06:43.034Z,31.71
2023-03-22T00:07:45.526Z,30.27
2023-03-22T00:08:48.099Z,32.23
2023-03-22T00:09:50.662Z,30.71
2023-03-22T00:10:53.662Z,31.98
2023-03-22T00:11:56.260Z,32.39
2023-03-22T00:12:58.821Z,36.49
2023-03-22T00:14:01.386Z,38.54
2023-03-22T00:15:03.954Z,41.39
2023-03-22T00:16:06.678Z,36.46
2023-03-22T00:17:09.392Z,37.30
2023-03-22T00:18:11.889Z,36.76
2023-03-22T00:19:14.470Z,35.91
2023-03-22T00:20:19.064Z,36.82
2023-03-22T00:21:21.511Z,37.79
2023-03-22T00:22:24.153Z,42.47
2023-03-22T00:23:26.706Z,43.65
2023-03-22T00:24:29.192Z,45.40
2023-03-22T00:25:31.788Z,42.91
2023-03-22T00:26:34.525Z,53.32
2023-03-22T00:27:37.084Z,54.38
2023-03-22T00:28:39.775Z,62.62
2023-03-22T00:29:42.339Z,62.67
2023-03-22T00:30:44.979Z,60.69
2023-03-22T00:31:47.790Z,59.38
2023-03-22T00:32:50.543Z,55.74
2023-03-22T00:33:53.092Z,54.30
2023-03-22T00:34:55.697Z,51.61
2023-03-22T00:35:58.508Z,52.73
2023-03-22T00:37:01.322Z,51.56
2023-03-22T00:38:04.132Z,49.97
2023-03-22T00:39:06.688Z,45.21
2023-03-22T00:40:09.560Z,48.22
2023-03-22T00:41:12.284Z,44.59
2023-03-22T00:42:14.855Z,43.33
2023-03-22T00:43:17.545Z,42.25
2023-03-22T00:44:20.096Z,43.36
2023-03-22T00:45:22.553Z,41.25
2023-03-22T00:46:25.732Z,40.12
2023-03-22T00:47:28.339Z,37.75
2023-03-22T00:48:30.815Z,38.83
2023-03-22T00:49:33.379Z,39.42
2023-03-22T00:50:36.269Z,36.85
2023-03-22T00:51:38.893Z,37.93
2023-03-22T00:52:41.523Z,38.15
2023-03-22T00:53:44.056Z,33.43
2023-03-22T00:54:46.645Z,31.18
2023-03-22T00:55:49.326Z,31.95
2023-03-22T00:56:52.005Z,34.88
2023-03-22T00:57:54.604Z,38.67
2023-03-22T00:58:57.160Z,41.64
2023-03-22T00:59:59.715Z,44.35
2023-03-22T01:01:02.308Z,44.81
2023-03-22T01:02:04.876Z,40.90
2023-03-22T01:03:07.521Z,42.95
2023-03-22T01:04:10.092Z,42.32
2023-03-22T01:05:12.776Z,45.51
2023-03-22T01:06:16.118Z,43.68
2023-03-22T01:07:18.673Z,46.44
2023-03-22T01:08:21.522Z,40.54
2023-03-22T01:09:24.083Z,41.19
2023-03-22T01:10:27.198Z,39.34
2023-03-22T01:11:29.740Z,39.41
2023-03-22T01:12:32.304Z,36.67
2023-03-22T01:13:34.808Z,35.86
2023-03-22T01:14:37.878Z,34.67
2023-03-22T01:15:40.436Z,37.15
2023-03-22T01:16:43.371Z,37.26
2023-03-22T01:17:45.946Z,37.80
2023-03-22T01:18:48.662Z,37.63
2023-03-22T01:19:51.245Z,39.94
2023-03-22T01:20:54.025Z,41.29
2023-03-22T01:21:56.567Z,42.10
2023-03-22T01:22:59.232Z,39.13
2023-03-22T01:24:01.841Z,40.47
2023-03-22T01:25:04.387Z,41.75
2023-03-22T01:26:07.379Z,41.24
2023-03-22T01:27:09.936Z,39.57
2023-03-22T01:28:12.521Z,39.77
2023-03-22T01:29:15.079Z,39.45
2023-03-22T01:30:17.735Z,38.31
2023-03-22T01:31:20.378Z,39.94
2023-03-22T01:32:23.052Z,35.38
2023-03-22T01:33:25.719Z,36.00
2023-03-22T01:34:28.309Z,37.24
2023-03-22T01:35:30.905Z,33.84
2023-03-22T01:36:33.743Z,35.04
2023-03-22T01:37:36.390Z,28.63
2023-03-22T01:38:38.960Z,28.38
2023-03-22T01:39:41.573Z,29.47
2023-03-22T01:40:44.337Z,29.19
2023-03-22T01:41:46.903Z,33.71
2023-03-22T01:42:49.491Z,29.45
2023-03-22T01:43:52.042Z,31.13
2023-03-22T01:44:54.634Z,33.23
2023-03-22T01:45:57.242Z,31.27
2023-03-22T01:47:00.063Z,32.66
2023-03-22T01:48:02.706Z,33.53
2023-03-22T01:49:05.632Z,38.60
2023-03-22T01:50:09.062Z,43.42
2023-03-22T01:51:11.620Z,36.56
2023-03-22T01:52:14.331Z,34.61
2023-03-22T01:53:16.911Z,34.49
2023-03-22T01:54:19.452Z,39.57
2023-03-22T01:55:22.070Z,40.82
2023-03-22T01:56:24.725Z,43.89
2023-03-22T01:57:27.278Z,38.63
2023-03-22T01:58:30.087Z,40.01
2023-03-22T01:59:32.778Z,46.45
2023-03-22T02:00:35.447Z,47.28
2023-03-22T02:01:38.149Z,44.16
2023-03-22T02:02:40.690Z,44.05
2023-03-22T02:03:43.407Z,51.79
2023-03-22T02:04:45.968Z,46.09
2023-03-22T02:05:48.580Z,43.35
2023-03-22T02:06:51.448Z,43.02
2023-03-22T02:07:54.015Z,42.43
2023-03-22T02:08:56.582Z,39.83
2023-03-22T02:09:59.160Z,41.18
2023-03-22T02:11:01.840Z,42.59
2023-03-22T02:12:04.419Z,40.18
2023-03-22T02:13:07.096Z,38.10
2023-03-22T02:14:09.627Z,40.16
2023-03-22T02:15:12.181Z,39.11
2023-03-22T02:16:15.215Z,38.37
2023-03-22T02:17:17.777Z,36.70
2023-03-22T02:18:20.295Z,37.94
2023-03-22T02:19:23.110Z,39.37
2023-03-22T02:20:25.875Z,39.96
2023-03-22T02:21:28.442Z,37.02
2023-03-22T02:22:31.374Z,36.49
2023-03-22T02:23:33.968Z,36.63
2023-03-22T02:24:36.545Z,38.44
2023-03-22T02:25:39.106Z,38.19
2023-03-22T02:26:41.875Z,37.59
2023-03-22T02:27:44.554Z,35.86
2023-03-22T02:28:47.124Z,35.93
2023-03-22T02:29:49.682Z,36.65
2023-03-22T02:30:52.604Z,39.05
2023-03-22T02:31:55.535Z,42.76
2023-03-22T02:32:58.467Z,43.88
2023-03-22T02:34:01.077Z,51.76
2023-03-22T02:35:03.708Z,54.42
2023-03-22T02:36:06.480Z,51.73
2023-03-22T02:37:09.042Z,50.15
2023-03-22T02:38:11.722Z,53.97
2023-03-22T02:39:14.194Z,47.13
2023-03-22T02:40:16.776Z,42.92
2023-03-22T02:41:19.318Z,45.26
2023-03-22T02:42:21.875Z,49.63
2023-03-22T02:43:24.466Z,50.97
2023-03-22T02:44:27.054Z,46.70
2023-03-22T02:45:29.611Z,44.29
2023-03-22T02:46:32.354Z,51.61
2023-03-22T02:47:35.055Z,49.75
2023-03-22T02:48:37.693Z,55.23
2023-03-22T02:49:40.258Z,58.10
2023-03-22T02:50:43.245Z,55.74
2023-03-22T02:51:46.093Z,46.56
2023-03-22T02:52:48.686Z,46.81
2023-03-22T02:53:51.322Z,45.04
2023-03-22T02:54:53.885Z,47.56
2023-03-22T02:55:56.446Z,49.08
2023-03-22T02:56:59.218Z,49.07
2023-03-22T02:58:01.899Z,46.08
2023-03-22T02:59:04.561Z,45.85
2023-03-22T03:00:07.391Z,45.41
2023-03-22T03:01:09.975Z,48.14
2023-03-22T03:02:12.607Z,49.27
2023-03-22T03:03:15.147Z,48.26
2023-03-22T03:04:17.745Z,54.97
2023-03-22T03:05:20.355Z,52.37
2023-03-22T03:06:23.476Z,50.98
2023-03-22T03:07:26.010Z,51.44
2023-03-22T03:08:28.595Z,46.86
2023-03-22T03:09:31.163Z,48.57
2023-03-22T03:10:34.028Z,48.63
2023-03-22T03:11:36.595Z,50.39
2023-03-22T03:12:39.155Z,48.27
2023-03-22T03:13:41.866Z,48.47
2023-03-22T03:14:44.430Z,49.46
2023-03-22T03:15:47.101Z,50.75
2023-03-22T03:16:49.962Z,49.01
2023-03-22T03:17:52.556Z,49.73
2023-03-22T03:18:55.286Z,48.75
2023-03-22T03:19:57.916Z,49.13
2023-03-22T03:21:00.683Z,53.43
2023-03-22T03:22:03.347Z,52.67
2023-03-22T03:23:05.915Z,54.36
2023-03-22T03:24:08.503Z,56.07
2023-03-22T03:25:11.108Z,58.71
2023-03-22T03:26:14.003Z,59.30
2023-03-22T03:27:16.533Z,56.47
2023-03-22T03:28:19.127Z,53.37
2023-03-22T03:29:21.982Z,53.02
2023-03-22T03:30:24.709Z,54.95
2023-03-22T03:31:27.330Z,55.57
2023-03-22T03:32:29.847Z,52.30
2023-03-22T03:33:32.424Z,54.55
2023-03-22T03:34:35.048Z,54.75
2023-03-22T03:35:37.807Z,54.07
2023-03-22T03:36:40.711Z,56.77
2023-03-22T03:37:43.273Z,57.49
2023-03-22T03:38:45.839Z,58.19
2023-03-22T03:39:48.414Z,55.39
2023-03-22T03:40:51.120Z,55.93
2023-03-22T03:41:53.718Z,53.45
2023-03-22T03:42:56.287Z,55.31
2023-03-22T03:43:58.839Z,54.58
2023-03-22T03:45:01.394Z,54.43
2023-03-22T03:46:04.150Z,51.65
2023-03-22T03:47:06.688Z,54.19
2023-03-22T03:48:09.484Z,51.30
2023-03-22T03:49:12.085Z,53.65
2023-03-22T03:50:14.730Z,51.31
2023-03-22T03:51:17.334Z,52.67
2023-03-22T03:52:19.889Z,51.49
2023-03-22T03:53:22.476Z,54.51
2023-03-22T03:54:25.060Z,53.31
2023-03-22T03:55:27.617Z,52.97
2023-03-22T03:56:30.507Z,51.01
2023-03-22T03:57:33.145Z,53.59
2023-03-22T03:58:35.752Z,51.23
2023-03-22T03:59:38.511Z,51.29
2023-03-22T04:00:41.417Z,52.28
2023-03-22T04:01:44.110Z,50.36
2023-03-22T04:02:46.676Z,52.42
2023-03-22T04:03:49.244Z,53.95
2023-03-22T04:04:51.876Z,54.81
2023-03-22T04:05:54.463Z,50.88
2023-03-22T04:06:57.240Z,51.14
2023-03-22T04:07:59.759Z,51.55
2023-03-22T04:09:02.318Z,53.05
2023-03-22T04:10:05.178Z,52.78
2023-03-22T04:11:07.653Z,55.90
2023-03-22T04:12:10.225Z,55.62
2023-03-22T04:13:12.790Z,55.90
2023-03-22T04:14:15.331Z,56.85
2023-03-22T04:15:17.880Z,56.43
2023-03-22T04:16:20.856Z,53.21
2023-03-22T04:17:23.398Z,59.05
2023-03-22T04:18:26.679Z,59.72
2023-03-22T04:19:29.241Z,57.44
2023-03-22T04:20:31.801Z,59.81
2023-03-22T04:21:34.396Z,57.68
2023-03-22T04:22:36.998Z,58.70
2023-03-22T04:23:39.572Z,56.19
2023-03-22T04:24:42.148Z,55.13
2023-03-22T04:25:44.722Z,55.97
2023-03-22T04:26:47.635Z,59.44
2023-03-22T04:27:50.192Z,57.55
2023-03-22T04:28:52.851Z,59.94
2023-03-22T04:29:55.391Z,60.74
2023-03-22T04:30:58.332Z,59.64
2023-03-22T04:32:00.898Z,58.28
2023-03-22T04:33:03.453Z,61.61
2023-03-22T04:34:06.788Z,56.26
2023-03-22T04:35:09.338Z,57.07
2023-03-22T04:36:13.414Z,53.41
2023-03-22T04:37:16.015Z,53.70
2023-03-22T04:38:18.566Z,55.03
2023-03-22T04:39:21.297Z,47.97
2023-03-22T04:40:24.406Z,47.19
2023-03-22T04:41:26.783Z,45.93
2023-03-22T04:42:29.385Z,49.69
2023-03-22T04:43:32.048Z,48.46
2023-03-22T04:44:34.576Z,45.62
2023-03-22T04:45:37.129Z,46.97
2023-03-22T04:46:39.882Z,47.79
2023-03-22T04:47:42.413Z,47.91
2023-03-22T04:48:44.953Z,48.95
2023-03-22T04:49:47.666Z,50.86
2023-03-22T04:50:50.517Z,48.63
2023-03-22T04:51:53.070Z,50.34
2023-03-22T04:52:55.623Z,51.38
2023-03-22T04:53:58.184Z,51.78
2023-03-22T04:55:00.758Z,53.79
2023-03-22T04:56:03.540Z,52.91
2023-03-22T04:57:06.077Z,54.09
2023-03-22T04:58:08.835Z,52.13
2023-03-22T04:59:11.401Z,51.99
2023-03-22T05:00:14.548Z,51.71
2023-03-22T05:01:17.102Z,56.29
2023-03-22T05:02:19.665Z,50.36
2023-03-22T05:03:22.499Z,53.13
2023-03-22T05:04:25.059Z,52.34
2023-03-22T05:05:27.620Z,53.69
2023-03-22T05:06:30.479Z,53.61
2023-03-22T05:07:33.063Z,57.57
2023-03-22T05:08:35.624Z,56.54
2023-03-22T05:09:38.184Z,60.53
2023-03-22T05:10:41.369Z,61.23
2023-03-22T05:11:44.229Z,61.95
2023-03-22T05:12:46.793Z,64.93
2023-03-22T05:13:49.346Z,62.41
2023-03-22T05:14:52.004Z,64.92
2023-03-22T05:15:54.918Z,67.15
2023-03-22T05:16:57.853Z,69.49
2023-03-22T05:18:00.385Z,69.55
2023-03-22T05:19:02.976Z,68.23
2023-03-22T05:20:06.149Z,67.78
2023-03-22T05:21:08.704Z,68.93
2023-03-22T05:22:11.256Z,63.87
2023-03-22T05:23:13.822Z,65.25
2023-03-22T05:24:16.372Z,63.39
2023-03-22T05:25:18.926Z,64.39
2023-03-22T05:26:21.888Z,64.07
2023-03-22T05:27:24.428Z,64.64
2023-03-22T05:28:27.007Z,58.84
2023-03-22T05:29:29.448Z,58.31
2023-03-22T05:30:32.216Z,56.69
2023-03-22T05:31:34.947Z,55.31
2023-03-22T05:32:37.665Z,54.25
2023-03-22T05:33:40.575Z,53.46
2023-03-22T05:34:43.131Z,52.20
2023-03-22T05:35:45.623Z,52.25
2023-03-22T05:36:48.545Z,50.63
2023-03-22T05:37:51.024Z,51.78
2023-03-22T05:38:53.593Z,51.91
2023-03-22T05:39:56.150Z,48.61
2023-03-22T05:40:58.958Z,50.86
2023-03-22T05:42:01.503Z,50.57
2023-03-22T05:43:04.063Z,51.73
2023-03-22T05:44:06.624Z,50.97
2023-03-22T05:45:09.204Z,54.69
2023-03-22T05:46:12.140Z,51.19
2023-03-22T05:47:14.692Z,53.11
2023-03-22T05:48:17.321Z,52.09
2023-03-22T05:49:19.961Z,53.13
2023-03-22T05:50:23.573Z,52.28
2023-03-22T05:51:26.136Z,54.79
2023-03-22T05:52:28.689Z,54.07
2023-03-22T05:53:31.272Z,51.03
2023-03-22T05:54:33.826Z,54.83
2023-03-22T05:55:36.388Z,52.75
2023-03-22T05:56:39.269Z,55.09
2023-03-22T05:57:41.725Z,51.71
2023-03-22T05:58:44.131Z,52.53
2023-03-22T05:59:46.880Z,50.19
2023-03-22T06:00:49.631Z,49.85
2023-03-22T06:01:52.227Z,47.86
2023-03-22T06:02:54.982Z,48.53
2023-03-22T06:03:57.559Z,48.61
2023-03-22T06:05:00.135Z,45.75
2023-03-22T06:06:02.688Z,45.59
2023-03-22T06:07:05.257Z,44.34
2023-03-22T06:08:07.924Z,47.21
2023-03-22T06:09:16.970Z,45.21
2023-03-22T06:10:15.208Z,45.79
2023-03-22T06:11:17.768Z,49.70
2023-03-22T06:12:20.352Z,53.39
2023-03-22T06:13:22.947Z,50.99
2023-03-22T06:14:25.901Z,52.51
2023-03-22T06:15:28.466Z,51.88
2023-03-22T06:16:31.274Z,48.79
2023-03-22T06:17:33.967Z,51.39
2023-03-22T06:18:36.541Z,49.90
2023-03-22T06:19:39.152Z,52.84
2023-03-22T06:20:42.329Z,51.33
2023-03-22T06:21:45.196Z,51.74
2023-03-22T06:22:47.750Z,48.37
2023-03-22T06:23:50.352Z,45.74
2023-03-22T06:24:53.130Z,45.69
2023-03-22T06:25:55.702Z,47.10
2023-03-22T06:26:58.476Z,48.14
2023-03-22T06:28:01.031Z,46.80
2023-03-22T06:29:03.629Z,45.15
2023-03-22T06:30:06.919Z,45.19
2023-03-22T06:31:09.630Z,39.59
2023-03-22T06:32:12.459Z,38.62
2023-03-22T06:33:15.028Z,37.52
2023-03-22T06:34:17.706Z,39.16
2023-03-22T06:35:20.362Z,38.94
2023-03-22T06:36:23.121Z,26.11
2023-03-22T06:37:25.684Z,27.03
2023-03-22T06:38:28.245Z,23.72
2023-03-22T06:39:30.861Z,23.42
2023-03-22T06:40:33.849Z,31.40
2023-03-22T06:41:36.518Z,31.21
2023-03-22T06:42:39.084Z,26.10
2023-03-22T06:43:41.708Z,25.29
2023-03-22T06:44:44.294Z,21.09
2023-03-22T06:45:46.927Z,17.68
2023-03-22T06:46:49.939Z,19.31
2023-03-22T06:47:52.514Z,19.55
2023-03-22T06:48:55.220Z,17.98
2023-03-22T06:49:57.788Z,17.53
2023-03-22T06:51:00.922Z,17.91
2023-03-22T06:52:03.497Z,17.40
2023-03-22T06:53:06.111Z,15.19
2023-03-22T06:54:08.670Z,14.65
2023-03-22T06:55:11.239Z,15.07
2023-03-22T06:56:14.499Z,14.75
2023-03-22T06:57:17.095Z,15.76
2023-03-22T06:58:19.660Z,16.02
2023-03-22T06:59:22.223Z,15.37
2023-03-22T07:00:24.799Z,14.01
2023-03-22T07:01:27.548Z,12.81
2023-03-22T07:02:30.095Z,13.21
2023-03-22T07:03:32.632Z,12.30
2023-03-22T07:04:35.262Z,12.43
2023-03-22T07:05:37.851Z,12.63
2023-03-22T07:06:40.571Z,12.73
2023-03-22T07:07:43.164Z,11.68
2023-03-22T07:08:45.732Z,12.47
2023-03-22T07:09:48.506Z,11.84
2023-03-22T07:10:51.242Z,11.65
2023-03-22T07:11:53.983Z,13.23
2023-03-22T07:12:56.356Z,11.03
2023-03-22T07:13:58.955Z,10.91
2023-03-22T07:15:01.509Z,14.40
2023-03-22T07:16:04.374Z,12.31
2023-03-22T07:17:06.947Z,12.26
2023-03-22T07:18:09.967Z,11.80
2023-03-22T07:19:12.531Z,12.57
2023-03-22T07:20:15.208Z,12.70
2023-03-22T07:21:18.004Z,12.97
2023-03-22T07:22:20.533Z,12.03
2023-03-22T07:23:23.107Z,12.41
2023-03-22T07:24:25.816Z,9.39
2023-03-22T07:25:28.383Z,9.53
2023-03-22T07:26:31.258Z,10.38
2023-03-22T07:27:33.847Z,9.96
2023-03-22T07:28:36.411Z,10.84
2023-03-22T07:29:38.964Z,10.91
2023-03-22T07:30:41.920Z,11.14
2023-03-22T07:31:44.802Z,11.51
2023-03-22T07:32:47.297Z,10.47
2023-03-22T07:33:49.856Z,9.57
2023-03-22T07:34:52.416Z,10.29
2023-03-22T07:35:55.112Z,10.81
2023-03-22T07:36:57.644Z,9.55
2023-03-22T07:38:00.322Z,10.13
2023-03-22T07:39:03.062Z,10.82
2023-03-22T07:40:05.997Z,10.07
2023-03-22T07:41:08.563Z,8.74
2023-03-22T07:42:11.158Z,9.22
2023-03-22T07:43:13.815Z,10.25
2023-03-22T07:44:18.157Z,9.71
2023-03-22T07:45:20.788Z,8.71
2023-03-22T07:46:23.826Z,9.11
2023-03-22T07:47:39.980Z,8.24
2023-03-22T07:48:31.120Z,9.48
2023-03-22T07:49:33.641Z,9.66
2023-03-22T07:50:36.624Z,10.19
2023-03-22T07:51:39.158Z,10.11
2023-03-22T07:52:41.619Z,9.51
2023-03-22T07:53:44.378Z,9.93
2023-03-22T07:54:46.986Z,11.57
2023-03-22T07:55:49.568Z,9.37
2023-03-22T07:56:52.361Z,10.24
2023-03-22T07:57:54.914Z,9.55
2023-03-22T07:58:57.521Z,9.31
2023-03-22T08:00:00.036Z,10.52
2023-03-22T08:01:02.604Z,9.51
2023-03-22T08:02:05.215Z,9.55
2023-03-22T08:03:07.922Z,10.19
2023-03-22T08:04:10.495Z,10.79
2023-03-22T08:05:13.007Z,8.88
2023-03-22T08:06:15.810Z,8.01
2023-03-22T08:07:18.396Z,8.67
2023-03-22T08:08:21.023Z,9.51
2023-03-22T08:09:23.550Z,9.58
2023-03-22T08:10:26.564Z,10.12
2023-03-22T08:11:29.130Z,9.46
2023-03-22T08:12:31.682Z,10.83
2023-03-22T08:13:34.248Z,9.41
2023-03-22T08:14:37.315Z,10.60
2023-03-22T08:15:40.387Z,10.49
2023-03-22T08:16:43.841Z,9.57
2023-03-22T08:17:46.365Z,10.31
2023-03-22T08:18:48.927Z,10.41
2023-03-22T08:19:51.518Z,10.25
2023-03-22T08:20:54.386Z,9.56
2023-03-22T08:21:56.942Z,10.45
2023-03-22T08:22:59.553Z,10.42
2023-03-22T08:24:02.465Z,10.68
2023-03-22T08:25:05.054Z,10.81
2023-03-22T08:26:08.044Z,9.71
2023-03-22T08:27:10.602Z,10.28
2023-03-22T08:28:13.154Z,10.79
2023-03-22T08:29:15.713Z,9.92
2023-03-22T08:30:18.735Z,10.17
2023-03-22T08:31:21.380Z,9.74
2023-03-22T08:32:24.089Z,8.95
2023-03-22T08:33:26.632Z,10.01
2023-03-22T08:34:29.213Z,9.41
2023-03-22T08:35:31.850Z,9.59
2023-03-22T08:36:34.704Z,9.66
2023-03-22T08:37:37.261Z,9.13
2023-03-22T08:38:39.721Z,8.93
2023-03-22T08:39:42.419Z,9.59
2023-03-22T08:40:45.119Z,9.82
2023-03-22T08:41:47.750Z,11.04
2023-03-22T08:42:50.285Z,10.58
2023-03-22T08:43:52.738Z,9.98
2023-03-22T08:44:55.285Z,9.73
2023-03-22T08:45:57.871Z,9.60
2023-03-22T08:47:02.280Z,9.81
2023-03-22T08:48:05.386Z,10.24
2023-03-22T08:49:07.945Z,9.63
2023-03-22T08:50:10.892Z,10.17
2023-03-22T08:51:13.334Z,9.59
2023-03-22T08:52:15.881Z,11.06
2023-03-22T08:53:18.453Z,9.89
2023-03-22T08:54:20.899Z,9.97
2023-03-22T08:55:23.438Z,9.25
2023-03-22T08:56:26.290Z,8.86
2023-03-22T08:57:28.731Z,8.61
2023-03-22T08:58:31.196Z,7.39
2023-03-22T08:59:33.720Z,7.95
2023-03-22T09:00:47.664Z,7.64
2023-03-22T09:01:40.708Z,7.71
2023-03-22T09:02:43.298Z,7.77
2023-03-22T09:03:45.784Z,7.34
2023-03-22T09:04:48.554Z,8.01
2023-03-22T09:05:51.239Z,8.40
2023-03-22T09:06:53.927Z,8.43
2023-03-22T09:07:59.008Z,8.17
2023-03-22T09:09:00.821Z,8.07
2023-03-22T09:10:03.270Z,8.29
2023-03-22T09:11:05.817Z,8.15
2023-03-22T09:12:08.179Z,8.17
2023-03-22T09:13:10.823Z,7.15
2023-03-22T09:14:13.725Z,8.25
2023-03-22T09:15:16.296Z,7.91
2023-03-22T09:16:18.952Z,8.91
2023-03-22T09:17:22.560Z,7.32
2023-03-22T09:18:25.475Z,8.41
2023-03-22T09:19:27.919Z,7.69
2023-03-22T09:20:30.766Z,8.11
2023-03-22T09:21:33.343Z,7.13
2023-03-22T09:22:35.910Z,6.11
2023-03-22T09:23:38.371Z,6.37
2023-03-22T09:24:40.886Z,6.52
2023-03-22T09:25:43.333Z,6.91
2023-03-22T09:26:46.387Z,6.47
2023-03-22T09:27:48.926Z,6.34
2023-03-22T09:28:51.453Z,6.45
2023-03-22T09:29:54.246Z,6.75
2023-03-22T09:30:56.926Z,6.91
2023-03-22T09:31:59.450Z,7.82
2023-03-22T09:33:01.924Z,7.28
2023-03-22T09:34:04.503Z,6.80
2023-03-22T09:35:07.023Z,6.83
2023-03-22T09:36:10.803Z,7.12
2023-03-22T09:37:13.269Z,7.43
2023-03-22T09:38:16.280Z,7.26
2023-03-22T09:39:18.829Z,6.69
2023-03-22T09:40:21.589Z,6.83
2023-03-22T09:41:24.081Z,6.81
2023-03-22T09:42:26.628Z,7.62
2023-03-22T09:43:29.839Z,8.19
2023-03-22T09:44:33.460Z,7.19
2023-03-22T09:45:35.906Z,7.10
2023-03-22T09:46:38.535Z,8.72
2023-03-22T09:47:45.489Z,7.15
2023-03-22T09:48:47.152Z,6.80
2023-03-22T09:49:53.701Z,6.73
2023-03-22T09:50:54.561Z,7.32
2023-03-22T09:51:57.165Z,7.68
2023-03-22T09:52:59.814Z,7.69
2023-03-22T09:54:02.405Z,7.23
2023-03-22T09:55:05.040Z,6.62
2023-03-22T09:56:07.992Z,8.05
2023-03-22T09:57:10.529Z,8.27
2023-03-22T09:58:13.011Z,6.95
2023-03-22T09:59:15.843Z,6.88
2023-03-22T10:00:18.406Z,6.55
2023-03-22T10:01:22.791Z,7.25
2023-03-22T10:02:25.519Z,7.71
2023-03-22T10:03:28.045Z,6.73
2023-03-22T10:04:30.817Z,7.24
2023-03-22T10:05:33.533Z,7.48
2023-03-22T10:06:36.201Z,7.24
2023-03-22T10:07:38.740Z,6.43
2023-03-22T10:08:41.089Z,7.03
2023-03-22T10:09:43.630Z,6.67
2023-03-22T10:10:46.279Z,6.72
2023-03-22T10:11:48.882Z,6.51
2023-03-22T10:12:51.505Z,8.09
2023-03-22T10:13:54.236Z,6.97
2023-03-22T10:14:56.692Z,7.03
2023-03-22T10:15:59.248Z,7.51
2023-03-22T10:17:02.010Z,7.16
2023-03-22T10:18:04.558Z,7.03
2023-03-22T10:19:07.024Z,7.30
2023-03-22T10:20:09.971Z,6.38
2023-03-22T10:21:12.593Z,6.43
2023-03-22T10:22:15.131Z,6.69
2023-03-22T10:23:17.705Z,7.30
2023-03-22T10:24:20.266Z,7.63
2023-03-22T10:25:23.026Z,7.59
2023-03-22T10:26:25.711Z,7.57
2023-03-22T10:27:28.277Z,7.75
2023-03-22T10:28:30.851Z,7.87
2023-03-22T10:29:33.458Z,9.41
2023-03-22T10:30:36.450Z,8.37
2023-03-22T10:31:39.013Z,6.95
2023-03-22T10:32:56.461Z,6.86
2023-03-22T10:33:46.161Z,6.65
2023-03-22T10:34:48.723Z,6.70
2023-03-22T10:35:51.327Z,6.61
2023-03-22T10:36:53.960Z,6.89
2023-03-22T10:37:56.551Z,7.41
2023-03-22T10:38:59.086Z,6.25
2023-03-22T10:40:01.686Z,7.09
2023-03-22T10:41:04.301Z,7.01
2023-03-22T10:42:06.835Z,6.79
2023-03-22T10:43:09.868Z,6.67
2023-03-22T10:44:12.414Z,6.39
2023-03-22T10:45:15.020Z,6.01
2023-03-22T10:46:18.358Z,6.36
2023-03-22T10:47:21.261Z,6.87
2023-03-22T10:48:23.872Z,6.51
2023-03-22T10:49:26.613Z,6.69
2023-03-22T10:50:29.413Z,6.83
2023-03-22T10:51:31.988Z,6.85
2023-03-22T10:52:34.544Z,7.47
2023-03-22T10:53:37.104Z,8.19
2023-03-22T10:54:39.659Z,6.62
2023-03-22T10:55:43.112Z,6.26
2023-03-22T10:56:46.340Z,5.40
2023-03-22T10:57:48.878Z,6.05
2023-03-22T10:58:51.549Z,7.22
2023-03-22T10:59:54.119Z,6.10
2023-03-22T11:00:57.353Z,7.87
2023-03-22T11:02:00.477Z,6.92
2023-03-22T11:03:02.967Z,5.73
2023-03-22T11:04:05.814Z,6.16
2023-03-22T11:05:08.358Z,6.31
2023-03-22T11:06:10.917Z,6.47
2023-03-22T11:07:13.485Z,6.60
2023-03-22T11:08:16.024Z,7.37
2023-03-22T11:09:18.760Z,6.85
2023-03-22T11:10:21.531Z,7.02
2023-03-22T11:11:24.196Z,7.84
2023-03-22T11:12:26.801Z,6.17
2023-03-22T11:13:29.407Z,6.91
2023-03-22T11:14:32.187Z,6.68
2023-03-22T11:15:34.651Z,6.51
2023-03-22T11:16:37.235Z,6.96
2023-03-22T11:17:39.960Z,6.91
2023-03-22T11:18:42.538Z,7.15
2023-03-22T11:19:45.130Z,7.27
2023-03-22T11:20:47.990Z,6.96
2023-03-22T11:21:50.612Z,6.78
2023-03-22T11:22:53.172Z,6.53
2023-03-22T11:23:55.751Z,6.31
2023-03-22T11:24:58.350Z,6.98
2023-03-22T11:26:00.910Z,6.93
2023-03-22T11:27:03.497Z,6.05
2023-03-22T11:28:06.039Z,6.26
2023-03-22T11:29:08.717Z,7.13
2023-03-22T11:30:12.202Z,7.09
2023-03-22T11:31:15.499Z,6.36
2023-03-22T11:32:18.106Z,6.23
2023-03-22T11:33:20.867Z,6.04
2023-03-22T11:34:23.427Z,6.71
2023-03-22T11:35:26.072Z,6.47
2023-03-22T11:36:29.079Z,5.66
2023-03-22T11:37:31.636Z,6.19
2023-03-22T11:38:34.202Z,5.57
2023-03-22T11:39:36.855Z,5.87
2023-03-22T11:40:39.837Z,6.03
2023-03-22T11:41:42.837Z,5.73
2023-03-22T11:42:45.405Z,6.16
2023-03-22T11:43:47.974Z,5.89
2023-03-22T11:44:50.599Z,5.82
2023-03-22T11:45:53.314Z,6.19
2023-03-22T11:46:56.469Z,6.27
2023-03-22T11:47:59.134Z,7.86
2023-03-22T11:49:02.028Z,5.75
2023-03-22T11:50:05.205Z,6.08
2023-03-22T11:51:08.084Z,5.74
2023-03-22T11:52:10.657Z,5.81
2023-03-22T11:53:13.263Z,5.75
2023-03-22T11:54:16.120Z,6.44
2023-03-22T11:55:18.682Z,6.21
2023-03-22T11:56:21.512Z,5.79
2023-03-22T11:57:24.011Z,5.58
2023-03-22T11:58:26.560Z,5.11
2023-03-22T11:59:29.130Z,5.74
2023-03-22T12:00:31.770Z,6.61
2023-03-22T12:01:34.383Z,5.79
2023-03-22T12:02:37.118Z,4.85
2023-03-22T12:03:39.954Z,5.66
2023-03-22T12:04:42.889Z,5.61
2023-03-22T12:05:45.853Z,5.43
2023-03-22T12:06:48.816Z,5.11
2023-03-22T12:07:51.689Z,5.25
2023-03-22T12:08:54.184Z,6.76
2023-03-22T12:09:58.986Z,5.35
2023-03-22T12:11:01.636Z,5.72
2023-03-22T12:12:04.246Z,5.49
2023-03-22T12:13:06.845Z,5.58
2023-03-22T12:14:09.606Z,5.83
2023-03-22T12:15:12.592Z,5.86
2023-03-22T12:16:15.984Z,5.79
2023-03-22T12:17:18.610Z,5.80
2023-03-22T12:18:21.353Z,5.52
2023-03-22T12:19:23.885Z,5.05
2023-03-22T12:20:26.857Z,4.76
2023-03-22T12:21:29.481Z,5.56
2023-03-22T12:22:32.054Z,5.30
2023-03-22T12:23:34.615Z,5.29
2023-03-22T12:24:37.087Z,5.14
2023-03-22T12:25:39.867Z,5.43
2023-03-22T12:26:43.150Z,5.04
2023-03-22T12:27:45.747Z,5.40
2023-03-22T12:28:48.312Z,6.01
2023-03-22T12:29:50.813Z,5.63
2023-03-22T12:30:53.540Z,5.00
2023-03-22T12:31:56.210Z,5.53
2023-03-22T12:32:58.915Z,6.07
2023-03-22T12:34:01.532Z,5.38
2023-03-22T12:35:17.156Z,5.35
2023-03-22T12:36:09.335Z,5.42
2023-03-22T12:37:12.632Z,5.00
2023-03-22T12:38:15.483Z,5.12
2023-03-22T12:39:17.987Z,5.66
2023-03-22T12:40:20.676Z,5.52
2023-03-22T12:41:23.234Z,4.89
2023-03-22T12:42:25.697Z,4.69
2023-03-22T12:43:28.296Z,5.29
2023-03-22T12:44:30.768Z,5.78
2023-03-22T12:45:33.540Z,5.45
2023-03-22T12:46:36.340Z,5.89
2023-03-22T12:47:39.128Z,6.83
2023-03-22T12:48:43.050Z,5.96
2023-03-22T12:49:46.358Z,6.56
2023-03-22T12:50:49.412Z,5.67
2023-03-22T12:51:51.894Z,5.53
2023-03-22T12:52:56.620Z,4.76
2023-03-22T12:53:58.835Z,5.28
2023-03-22T12:55:01.408Z,5.23
2023-03-22T12:56:04.016Z,5.86
2023-03-22T12:57:06.631Z,5.98
2023-03-22T12:58:09.390Z,5.37
2023-03-22T12:59:11.927Z,5.28
2023-03-22T13:00:14.989Z,5.37
2023-03-22T13:01:17.552Z,5.91
2023-03-22T13:02:20.329Z,5.86
2023-03-22T13:03:22.914Z,6.38
2023-03-22T13:04:25.712Z,6.56
2023-03-22T13:05:28.314Z,5.99
2023-03-22T13:06:31.071Z,5.42
2023-03-22T13:07:33.600Z,5.84
2023-03-22T13:08:35.981Z,5.31
2023-03-22T13:09:38.358Z,6.03
2023-03-22T13:10:41.124Z,5.43
2023-03-22T13:11:43.774Z,5.94
2023-03-22T13:12:46.305Z,5.73
2023-03-22T13:13:48.877Z,5.57
2023-03-22T13:14:51.438Z,5.65
2023-03-22T13:15:54.723Z,6.64
2023-03-22T13:17:00.149Z,5.43
2023-03-22T13:18:02.945Z,6.72
2023-03-22T13:19:05.535Z,6.83
2023-03-22T13:20:08.852Z,5.54
2023-03-22T13:21:11.407Z,5.59
2023-03-22T13:22:13.972Z,6.07
2023-03-22T13:23:16.539Z,4.89
2023-03-22T13:24:19.111Z,4.81
2023-03-22T13:25:21.653Z,5.33
2023-03-22T13:26:24.530Z,5.52
2023-03-22T13:27:27.081Z,5.27
2023-03-22T13:28:29.598Z,4.63
2023-03-22T13:29:32.650Z,5.16
2023-03-22T13:30:35.531Z,6.28
2023-03-22T13:31:38.148Z,4.27
2023-03-22T13:32:40.881Z,4.82
2023-03-22T13:33:43.457Z,5.15
2023-03-22T13:34:45.999Z,4.96
2023-03-22T13:35:48.686Z,4.89
2023-03-22T13:36:51.850Z,5.94
2023-03-22T13:37:54.418Z,5.09
2023-03-22T13:38:56.903Z,4.64